SDM6279 UUEE-UHWW
Flight info
| Callsign | SDM6279 |
|---|---|
| Flight time | N/A |
| Altitude | 35000 |
| Route | N0490F350 RILPO T753 MIGRI N155 NIPRA T631 URMAN B229 KANAL G483 URAMI P989 KUMIR L870 PTG R809 DINEP R359 LEDIS N992 TORMA A946 IVADA L168 HAB/N0485F360 B355 BG G714 DAGES |
| Aircraft | B77W/H-VGDW/C |
Departure
| Time | 2026-05-01 11:07 |
|---|---|
| Airport | Sheremetyevo International Airport (UUEE) |
Arrival
| Time | N/A |
|---|---|
| Airport | Vladivostok International Airport (UHWW) |
| Time | Latitude | Longitude | Altitude | Speed | Heading |
|---|---|---|---|---|---|
| 2026-05-01 10:50 | 55.98019 | 37.41844 | 649 ft | 0 kts | 255° |
| 2026-05-01 10:58 | 55.98022 | 37.41861 | 647 ft | 2 kts | 255° |
| 2026-05-01 10:58 | 55.98026 | 37.41889 | 646 ft | 2 kts | 255° |
| 2026-05-01 10:59 | 55.98031 | 37.41916 | 644 ft | 2 kts | 235° |
| 2026-05-01 10:59 | 55.98041 | 37.41938 | 651 ft | 2 kts | 220° |
| 2026-05-01 10:59 | 55.98055 | 37.41954 | 645 ft | 2 kts | 195° |
| 2026-05-01 10:59 | 55.98071 | 37.41959 | 646 ft | 2 kts | 166° |
| 2026-05-01 11:00 | 55.98073 | 37.41957 | 644 ft | 0 kts | 166° |
| 2026-05-01 11:02 | 55.98070 | 37.41959 | 644 ft | 5 kts | 167° |
| 2026-05-01 11:02 | 55.98001 | 37.41990 | 646 ft | 11 kts | 165° |
| 2026-05-01 11:02 | 55.97926 | 37.42025 | 646 ft | 11 kts | 165° |
| 2026-05-01 11:03 | 55.97852 | 37.42060 | 650 ft | 11 kts | 165° |
| 2026-05-01 11:03 | 55.97777 | 37.42096 | 645 ft | 11 kts | 165° |
| 2026-05-01 11:03 | 55.97707 | 37.42149 | 649 ft | 11 kts | 131° |
| 2026-05-01 11:03 | 55.97705 | 37.42312 | 650 ft | 21 kts | 79° |
| 2026-05-01 11:04 | 55.97753 | 37.42645 | 648 ft | 29 kts | 75° |
| 2026-05-01 11:04 | 55.97806 | 37.42996 | 651 ft | 29 kts | 75° |
| 2026-05-01 11:04 | 55.97858 | 37.43347 | 646 ft | 29 kts | 75° |
| 2026-05-01 11:04 | 55.97911 | 37.43695 | 647 ft | 27 kts | 75° |
| 2026-05-01 11:05 | 55.97945 | 37.43940 | 648 ft | 16 kts | 84° |
| 2026-05-01 11:05 | 55.97881 | 37.44046 | 649 ft | 11 kts | 159° |
| 2026-05-01 11:05 | 55.97807 | 37.44071 | 645 ft | 11 kts | 197° |
| 2026-05-01 11:05 | 55.97769 | 37.43920 | 649 ft | 22 kts | 256° |
| 2026-05-01 11:06 | 55.97705 | 37.43507 | 648 ft | 51 kts | 255° |
| 2026-05-01 11:06 | 55.97550 | 37.42470 | 648 ft | 120 kts | 255° |
| 2026-05-01 11:06 | 55.97280 | 37.40670 | 647 ft | 177 kts | 255° |
| 2026-05-01 11:07 | 55.96706 | 37.36765 | 1346 ft | 199 kts | 256° |
| 2026-05-01 11:07 | 55.96342 | 37.34405 | 2203 ft | 193 kts | 256° |
| 2026-05-01 11:07 | 55.95961 | 37.32041 | 2627 ft | 209 kts | 255° |
| 2026-05-01 11:07 | 55.95533 | 37.29376 | 2847 ft | 231 kts | 255° |
| 2026-05-01 11:08 | 55.95075 | 37.26520 | 3296 ft | 245 kts | 255° |
| 2026-05-01 11:08 | 55.94609 | 37.23590 | 3910 ft | 252 kts | 255° |
| 2026-05-01 11:08 | 55.93641 | 37.17488 | 5372 ft | 258 kts | 255° |
| 2026-05-01 11:09 | 55.93154 | 37.14402 | 6099 ft | 260 kts | 255° |
| 2026-05-01 11:09 | 55.92661 | 37.11281 | 6724 ft | 264 kts | 256° |
| 2026-05-01 11:09 | 55.92161 | 37.08128 | 7374 ft | 266 kts | 256° |
| 2026-05-01 11:10 | 55.91676 | 37.01640 | 8407 ft | 270 kts | 289° |
| 2026-05-01 11:10 | 55.92565 | 36.98901 | 8964 ft | 269 kts | 314° |
| 2026-05-01 11:10 | 55.94016 | 36.96835 | 9560 ft | 269 kts | 326° |
| 2026-05-01 11:10 | 55.95572 | 36.94928 | 10070 ft | 272 kts | 326° |
| 2026-05-01 11:11 | 55.97152 | 36.92999 | 10180 ft | 277 kts | 329° |
| 2026-05-01 11:11 | 55.98926 | 36.91819 | 10196 ft | 274 kts | 355° |
| 2026-05-01 11:11 | 56.00800 | 36.92205 | 10409 ft | 274 kts | 18° |
| 2026-05-01 11:11 | 56.02517 | 36.93691 | 11055 ft | 275 kts | 31° |
| 2026-05-01 11:12 | 56.04105 | 36.95569 | 11810 ft | 273 kts | 33° |
| 2026-05-01 11:12 | 56.05677 | 36.97481 | 12636 ft | 272 kts | 32° |
| 2026-05-01 11:12 | 56.07242 | 36.99356 | 13505 ft | 270 kts | 32° |
| 2026-05-01 11:12 | 56.08820 | 37.01222 | 14110 ft | 272 kts | 32° |
| 2026-05-01 11:13 | 56.10383 | 37.03069 | 14168 ft | 274 kts | 34° |
| 2026-05-01 11:13 | 56.11699 | 37.05506 | 14208 ft | 277 kts | 54° |
| 2026-05-01 11:13 | 56.12513 | 37.08764 | 14372 ft | 297 kts | 70° |
| 2026-05-01 11:13 | 56.13032 | 37.12418 | 14859 ft | 307 kts | 71° |
| 2026-05-01 11:14 | 56.13542 | 37.16164 | 15205 ft | 312 kts | 71° |
| 2026-05-01 11:14 | 56.14063 | 37.19968 | 15169 ft | 313 kts | 71° |
| 2026-05-01 11:14 | 56.14589 | 37.23743 | 15185 ft | 311 kts | 71° |
| 2026-05-01 11:14 | 56.15115 | 37.27492 | 15178 ft | 310 kts | 71° |
| 2026-05-01 11:15 | 56.15643 | 37.31241 | 15185 ft | 309 kts | 71° |
| 2026-05-01 11:15 | 56.16334 | 37.34820 | 15206 ft | 300 kts | 55° |
| 2026-05-01 11:15 | 56.17518 | 37.37884 | 15654 ft | 302 kts | 51° |
| 2026-05-01 11:15 | 56.18733 | 37.40971 | 16163 ft | 303 kts | 52° |
| 2026-05-01 11:16 | 56.19943 | 37.44116 | 16168 ft | 308 kts | 52° |
| 2026-05-01 11:16 | 56.21154 | 37.47296 | 16179 ft | 307 kts | 52° |
| 2026-05-01 11:16 | 56.22350 | 37.50449 | 16170 ft | 305 kts | 52° |
| 2026-05-01 11:16 | 56.23539 | 37.53582 | 16192 ft | 304 kts | 52° |
| 2026-05-01 11:17 | 56.24746 | 37.56746 | 16694 ft | 308 kts | 52° |
| 2026-05-01 11:17 | 56.25949 | 37.59904 | 17185 ft | 307 kts | 52° |
| 2026-05-01 11:17 | 56.27160 | 37.63080 | 17173 ft | 309 kts | 52° |
| 2026-05-01 11:17 | 56.28371 | 37.66268 | 17177 ft | 307 kts | 52° |
| 2026-05-01 11:18 | 56.29572 | 37.69436 | 17178 ft | 306 kts | 52° |
| 2026-05-01 11:18 | 56.30797 | 37.72516 | 17210 ft | 306 kts | 48° |
| 2026-05-01 11:18 | 56.32171 | 37.75467 | 17833 ft | 308 kts | 46° |
| 2026-05-01 11:18 | 56.33568 | 37.78391 | 18200 ft | 310 kts | 47° |
| 2026-05-01 11:19 | 56.34974 | 37.81369 | 18183 ft | 311 kts | 47° |
| 2026-05-01 11:19 | 56.36361 | 37.84343 | 18166 ft | 309 kts | 47° |
| 2026-05-01 11:19 | 56.37745 | 37.87303 | 18169 ft | 305 kts | 44° |
| 2026-05-01 11:19 | 56.39406 | 37.89591 | 18201 ft | 302 kts | 26° |
| 2026-05-01 11:20 | 56.41412 | 37.90942 | 18291 ft | 318 kts | 13° |
| 2026-05-01 11:20 | 56.43683 | 37.91462 | 18459 ft | 338 kts | 7° |
| 2026-05-01 11:20 | 56.46097 | 37.91752 | 18612 ft | 357 kts | 6° |
| 2026-05-01 11:20 | 56.48619 | 37.92018 | 18974 ft | 369 kts | 6° |
| 2026-05-01 11:21 | 56.51211 | 37.92308 | 19454 ft | 376 kts | 6° |
| 2026-05-01 11:21 | 56.53836 | 37.92626 | 20022 ft | 381 kts | 6° |
| 2026-05-01 11:21 | 56.56485 | 37.92968 | 20692 ft | 383 kts | 6° |
| 2026-05-01 11:21 | 56.59155 | 37.93326 | 21387 ft | 385 kts | 7° |
| 2026-05-01 11:22 | 56.61831 | 37.93691 | 22041 ft | 388 kts | 7° |
| 2026-05-01 11:22 | 56.64506 | 37.94058 | 22644 ft | 392 kts | 7° |
| 2026-05-01 11:22 | 56.67205 | 37.94622 | 23099 ft | 391 kts | 16° |
| 2026-05-01 11:22 | 56.69736 | 37.96445 | 23530 ft | 395 kts | 30° |
| 2026-05-01 11:23 | 56.71968 | 37.99379 | 24079 ft | 397 kts | 41° |
| 2026-05-01 11:23 | 56.73847 | 38.02730 | 24618 ft | 398 kts | 44° |
| 2026-05-01 11:23 | 56.75796 | 38.06336 | 25145 ft | 399 kts | 44° |
| 2026-05-01 11:23 | 56.77750 | 38.09951 | 25629 ft | 402 kts | 43° |
| 2026-05-01 11:24 | 56.79727 | 38.13573 | 26081 ft | 405 kts | 43° |
| 2026-05-01 11:24 | 56.81732 | 38.17214 | 26556 ft | 407 kts | 43° |
| 2026-05-01 11:24 | 56.85774 | 38.24515 | 27444 ft | 412 kts | 43° |
| 2026-05-01 11:25 | 56.87836 | 38.28195 | 27854 ft | 414 kts | 41° |
| 2026-05-01 11:25 | 56.92196 | 38.35133 | 28692 ft | 418 kts | 38° |
| 2026-05-01 11:25 | 56.94435 | 38.38559 | 29082 ft | 420 kts | 38° |
| 2026-05-01 11:26 | 56.96676 | 38.41995 | 29440 ft | 422 kts | 38° |
| 2026-05-01 11:26 | 57.01140 | 38.48922 | 30105 ft | 426 kts | 38° |
| 2026-05-01 11:26 | 57.03394 | 38.52454 | 30365 ft | 427 kts | 39° |
| 2026-05-01 11:27 | 57.05662 | 38.56025 | 30581 ft | 430 kts | 39° |
| 2026-05-01 11:27 | 57.07933 | 38.59612 | 30774 ft | 433 kts | 39° |
| 2026-05-01 11:27 | 57.10216 | 38.63226 | 30995 ft | 434 kts | 39° |
| 2026-05-01 11:27 | 57.12509 | 38.66862 | 31271 ft | 434 kts | 39° |
| 2026-05-01 11:28 | 57.14794 | 38.70493 | 31568 ft | 435 kts | 39° |
| 2026-05-01 11:28 | 57.17082 | 38.74131 | 31816 ft | 435 kts | 39° |
| 2026-05-01 11:28 | 57.19380 | 38.77794 | 32054 ft | 436 kts | 39° |
| 2026-05-01 11:29 | 57.23970 | 38.85124 | 32574 ft | 437 kts | 39° |
| 2026-05-01 11:29 | 57.26275 | 38.88814 | 32811 ft | 438 kts | 39° |
| 2026-05-01 11:29 | 57.30863 | 38.96180 | 33104 ft | 443 kts | 39° |
| 2026-05-01 11:30 | 57.33186 | 38.99918 | 33146 ft | 443 kts | 39° |
| 2026-05-01 11:30 | 57.37706 | 39.07215 | 33160 ft | 439 kts | 39° |
| 2026-05-01 11:31 | 57.42295 | 39.14647 | 33168 ft | 437 kts | 39° |
| 2026-05-01 11:31 | 57.46863 | 39.22066 | 33165 ft | 437 kts | 39° |
| 2026-05-01 11:32 | 57.51437 | 39.29517 | 33176 ft | 437 kts | 39° |
| 2026-05-01 11:32 | 57.56020 | 39.36995 | 33174 ft | 439 kts | 39° |
| 2026-05-01 11:33 | 57.60611 | 39.44513 | 33167 ft | 440 kts | 39° |
| 2026-05-01 11:33 | 57.65198 | 39.52053 | 33165 ft | 440 kts | 39° |
| 2026-05-01 11:34 | 57.69761 | 39.59581 | 33168 ft | 440 kts | 39° |
| 2026-05-01 11:34 | 57.74353 | 39.67184 | 33170 ft | 441 kts | 39° |
| 2026-05-01 11:35 | 57.78937 | 39.74800 | 33169 ft | 441 kts | 40° |
| 2026-05-01 11:35 | 57.83526 | 39.82450 | 33170 ft | 441 kts | 40° |
| 2026-05-01 11:36 | 57.88109 | 39.90120 | 33172 ft | 441 kts | 40° |
| 2026-05-01 11:36 | 57.92676 | 39.97835 | 33167 ft | 441 kts | 40° |
| 2026-05-01 11:37 | 57.97128 | 40.05397 | 33173 ft | 441 kts | 40° |
| 2026-05-01 11:37 | 58.01668 | 40.13132 | 33174 ft | 441 kts | 40° |
| 2026-05-01 11:38 | 58.06221 | 40.20911 | 33172 ft | 441 kts | 40° |
| 2026-05-01 11:38 | 58.10740 | 40.28661 | 33171 ft | 442 kts | 40° |
| 2026-05-01 11:39 | 58.15286 | 40.36482 | 33171 ft | 441 kts | 40° |
| 2026-05-01 11:39 | 58.19828 | 40.44290 | 33172 ft | 441 kts | 40° |
| 2026-05-01 11:40 | 58.24393 | 40.52087 | 33170 ft | 441 kts | 40° |
| 2026-05-01 11:40 | 58.28951 | 40.59900 | 33170 ft | 441 kts | 40° |
| 2026-05-01 11:41 | 58.33494 | 40.67724 | 33169 ft | 441 kts | 40° |
| 2026-05-01 11:41 | 58.38038 | 40.75584 | 33173 ft | 441 kts | 40° |
| 2026-05-01 11:42 | 58.42583 | 40.83474 | 33167 ft | 442 kts | 40° |
| 2026-05-01 11:42 | 58.47128 | 40.91393 | 33165 ft | 442 kts | 40° |
| 2026-05-01 11:43 | 58.51665 | 40.99326 | 33166 ft | 443 kts | 40° |
| 2026-05-01 11:43 | 58.56100 | 41.07111 | 33171 ft | 443 kts | 40° |
| 2026-05-01 11:44 | 58.62877 | 41.19060 | 33170 ft | 444 kts | 40° |
| 2026-05-01 11:44 | 58.67420 | 41.27109 | 33160 ft | 444 kts | 40° |
| 2026-05-01 11:45 | 58.71964 | 41.35185 | 33166 ft | 445 kts | 40° |
| 2026-05-01 11:45 | 58.76047 | 41.44140 | 33167 ft | 449 kts | 53° |
| 2026-05-01 11:46 | 58.79074 | 41.54736 | 33163 ft | 455 kts | 64° |
| 2026-05-01 11:46 | 58.81294 | 41.66233 | 33166 ft | 457 kts | 66° |
| 2026-05-01 11:47 | 58.83443 | 41.77775 | 33163 ft | 458 kts | 65° |
| 2026-05-01 11:47 | 58.85619 | 41.89345 | 33165 ft | 458 kts | 65° |
| 2026-05-01 11:48 | 58.87751 | 42.00618 | 33167 ft | 458 kts | 65° |
| 2026-05-01 11:48 | 58.89921 | 42.12112 | 33160 ft | 458 kts | 65° |
| 2026-05-01 11:49 | 58.92095 | 42.23699 | 33168 ft | 458 kts | 65° |
| 2026-05-01 11:49 | 58.94261 | 42.35314 | 33159 ft | 459 kts | 66° |
| 2026-05-01 11:50 | 58.96412 | 42.46932 | 33164 ft | 459 kts | 66° |
| 2026-05-01 11:50 | 58.98559 | 42.58591 | 33184 ft | 460 kts | 66° |
| 2026-05-01 11:51 | 59.00699 | 42.70283 | 33166 ft | 461 kts | 66° |
| 2026-05-01 11:51 | 59.02833 | 42.82017 | 33171 ft | 462 kts | 66° |
| 2026-05-01 11:52 | 59.04964 | 42.93810 | 33155 ft | 463 kts | 66° |
| 2026-05-01 11:52 | 59.07026 | 43.05293 | 33158 ft | 464 kts | 67° |
| 2026-05-01 11:53 | 59.09145 | 43.17165 | 33155 ft | 465 kts | 67° |
| 2026-05-01 11:53 | 59.11251 | 43.29042 | 33157 ft | 465 kts | 67° |
| 2026-05-01 11:54 | 59.13350 | 43.40952 | 33153 ft | 465 kts | 67° |
| 2026-05-01 11:54 | 59.15436 | 43.52869 | 33163 ft | 465 kts | 67° |
| 2026-05-01 11:55 | 59.17514 | 43.64811 | 33150 ft | 465 kts | 67° |
| 2026-05-01 11:55 | 59.19580 | 43.76760 | 33153 ft | 466 kts | 67° |
| 2026-05-01 11:56 | 59.21639 | 43.88753 | 33153 ft | 466 kts | 67° |
| 2026-05-01 11:56 | 59.23648 | 44.00531 | 33173 ft | 467 kts | 68° |
| 2026-05-01 11:57 | 59.25341 | 44.10502 | 33159 ft | 468 kts | 68° |
| 2026-05-01 11:57 | 59.27835 | 44.24535 | 33154 ft | 468 kts | 65° |
| 2026-05-01 11:58 | 59.30203 | 44.36398 | 33154 ft | 468 kts | 65° |
| 2026-05-01 11:59 | 59.33715 | 44.54190 | 33150 ft | 470 kts | 65° |
| 2026-05-01 11:59 | 59.36022 | 44.66176 | 33144 ft | 470 kts | 65° |
| 2026-05-01 12:00 | 59.39452 | 44.84183 | 33151 ft | 470 kts | 66° |
| 2026-05-01 12:01 | 59.42814 | 45.01972 | 33142 ft | 471 kts | 66° |
| 2026-05-01 12:01 | 59.45084 | 45.14080 | 33143 ft | 471 kts | 66° |
| 2026-05-01 12:02 | 59.47338 | 45.26172 | 33138 ft | 472 kts | 66° |
| 2026-05-01 12:02 | 59.49586 | 45.38307 | 33138 ft | 472 kts | 66° |
| 2026-05-01 12:03 | 59.51826 | 45.50466 | 33129 ft | 473 kts | 66° |
| 2026-05-01 12:03 | 59.54176 | 45.62560 | 33133 ft | 474 kts | 65° |
| 2026-05-01 12:04 | 59.56584 | 45.74611 | 33137 ft | 477 kts | 65° |
| 2026-05-01 12:04 | 59.58995 | 45.86809 | 33131 ft | 479 kts | 66° |
| 2026-05-01 12:05 | 59.61391 | 45.99094 | 33128 ft | 480 kts | 66° |
| 2026-05-01 12:05 | 59.64901 | 46.17272 | 33123 ft | 479 kts | 66° |
| 2026-05-01 12:06 | 59.66860 | 46.27496 | 33126 ft | 478 kts | 66° |
| 2026-05-01 12:06 | 59.69207 | 46.39802 | 33123 ft | 477 kts | 66° |
| 2026-05-01 12:07 | 59.71539 | 46.52108 | 33126 ft | 477 kts | 66° |
| 2026-05-01 12:07 | 59.73858 | 46.64420 | 33125 ft | 476 kts | 66° |
| 2026-05-01 12:08 | 59.76162 | 46.76733 | 33124 ft | 477 kts | 66° |
| 2026-05-01 12:08 | 59.78450 | 46.89038 | 33122 ft | 479 kts | 67° |
| 2026-05-01 12:09 | 59.80694 | 47.01184 | 33116 ft | 480 kts | 67° |
| 2026-05-01 12:09 | 59.82986 | 47.13664 | 33117 ft | 481 kts | 67° |
| 2026-05-01 12:10 | 59.86413 | 47.32434 | 33129 ft | 482 kts | 68° |
| 2026-05-01 12:11 | 59.89820 | 47.51258 | 33123 ft | 486 kts | 68° |
| 2026-05-01 12:11 | 59.92101 | 47.63966 | 33116 ft | 488 kts | 68° |
| 2026-05-01 12:12 | 59.94373 | 47.76708 | 33115 ft | 489 kts | 68° |
| 2026-05-01 12:12 | 59.96640 | 47.89505 | 33111 ft | 489 kts | 68° |
| 2026-05-01 12:13 | 59.98849 | 48.02010 | 33104 ft | 489 kts | 69° |
| 2026-05-01 12:13 | 60.01094 | 48.14788 | 33103 ft | 489 kts | 69° |
| 2026-05-01 12:14 | 60.03336 | 48.27639 | 33100 ft | 490 kts | 69° |
| 2026-05-01 12:14 | 60.05551 | 48.40433 | 33102 ft | 490 kts | 69° |
| 2026-05-01 12:15 | 60.07771 | 48.53338 | 33108 ft | 490 kts | 69° |
| 2026-05-01 12:15 | 60.09974 | 48.66243 | 33110 ft | 490 kts | 69° |
| 2026-05-01 12:16 | 60.12174 | 48.79211 | 33102 ft | 492 kts | 69° |
| 2026-05-01 12:16 | 60.14365 | 48.92227 | 33104 ft | 493 kts | 70° |
| 2026-05-01 12:17 | 60.16497 | 49.04983 | 33095 ft | 494 kts | 70° |
| 2026-05-01 12:17 | 60.18671 | 49.18064 | 33091 ft | 495 kts | 70° |
| 2026-05-01 12:18 | 60.20797 | 49.31260 | 33101 ft | 497 kts | 71° |
| 2026-05-01 12:18 | 60.22803 | 49.44618 | 33090 ft | 500 kts | 72° |
| 2026-05-01 12:19 | 60.24797 | 49.58074 | 33089 ft | 502 kts | 72° |
| 2026-05-01 12:19 | 60.26798 | 49.71562 | 33089 ft | 504 kts | 72° |
| 2026-05-01 12:20 | 60.28788 | 49.85015 | 33083 ft | 504 kts | 72° |
| 2026-05-01 12:20 | 60.30777 | 49.98564 | 33091 ft | 503 kts | 72° |
| 2026-05-01 12:21 | 60.32705 | 50.11803 | 33079 ft | 504 kts | 73° |
| 2026-05-01 12:21 | 60.34661 | 50.25359 | 33075 ft | 504 kts | 73° |
| 2026-05-01 12:22 | 60.36608 | 50.38965 | 33076 ft | 504 kts | 73° |
| 2026-05-01 12:22 | 60.38544 | 50.52599 | 33075 ft | 505 kts | 73° |
| 2026-05-01 12:23 | 60.40466 | 50.66257 | 33075 ft | 505 kts | 73° |
| 2026-05-01 12:23 | 60.42377 | 50.79945 | 33070 ft | 506 kts | 74° |
| 2026-05-01 12:24 | 60.44274 | 50.93655 | 33076 ft | 507 kts | 74° |
| 2026-05-01 12:24 | 60.46121 | 51.07106 | 33071 ft | 508 kts | 75° |
| 2026-05-01 12:25 | 60.48915 | 51.27739 | 33065 ft | 509 kts | 75° |
| 2026-05-01 12:26 | 60.50763 | 51.41599 | 33065 ft | 509 kts | 75° |
| 2026-05-01 12:26 | 60.53517 | 51.62442 | 33066 ft | 510 kts | 75° |
| 2026-05-01 12:27 | 60.56260 | 51.83340 | 33066 ft | 511 kts | 75° |
| 2026-05-01 12:28 | 60.58959 | 52.03941 | 33067 ft | 511 kts | 75° |
| 2026-05-01 12:29 | 60.61654 | 52.24828 | 33063 ft | 511 kts | 76° |
| 2026-05-01 12:29 | 60.64329 | 52.45876 | 33066 ft | 512 kts | 76° |
| 2026-05-01 12:30 | 60.66978 | 52.67002 | 33051 ft | 512 kts | 77° |
| 2026-05-01 12:31 | 60.68720 | 52.81069 | 33067 ft | 512 kts | 77° |
| 2026-05-01 12:31 | 60.70450 | 52.95167 | 33065 ft | 512 kts | 77° |
| 2026-05-01 12:32 | 60.72112 | 53.08850 | 33067 ft | 511 kts | 77° |
| 2026-05-01 12:32 | 60.74653 | 53.30013 | 33065 ft | 511 kts | 77° |
| 2026-05-01 12:33 | 60.76337 | 53.44210 | 33071 ft | 511 kts | 77° |
| 2026-05-01 12:33 | 60.77990 | 53.58266 | 33062 ft | 512 kts | 78° |
| 2026-05-01 12:34 | 60.79666 | 53.72442 | 33062 ft | 513 kts | 77° |
| 2026-05-01 12:34 | 60.81379 | 53.86632 | 33058 ft | 513 kts | 77° |
| 2026-05-01 12:35 | 60.83046 | 54.00545 | 33060 ft | 514 kts | 77° |
| 2026-05-01 12:35 | 60.84717 | 54.14697 | 33059 ft | 514 kts | 78° |
| 2026-05-01 12:36 | 60.86382 | 54.28973 | 33057 ft | 515 kts | 78° |
| 2026-05-01 12:36 | 60.88032 | 54.43278 | 33057 ft | 515 kts | 78° |
| 2026-05-01 12:37 | 60.89658 | 54.57507 | 33048 ft | 515 kts | 79° |
| 2026-05-01 12:37 | 60.91275 | 54.71808 | 33056 ft | 514 kts | 79° |
| 2026-05-01 12:38 | 60.92879 | 54.86141 | 33043 ft | 514 kts | 79° |
| 2026-05-01 12:38 | 60.94449 | 55.00315 | 33058 ft | 514 kts | 79° |
| 2026-05-01 12:39 | 60.96004 | 55.14505 | 33049 ft | 514 kts | 80° |
| 2026-05-01 12:39 | 60.97559 | 55.28855 | 33049 ft | 514 kts | 80° |
| 2026-05-01 12:40 | 60.99103 | 55.43248 | 33046 ft | 515 kts | 80° |
| 2026-05-01 12:40 | 61.00626 | 55.57612 | 33057 ft | 515 kts | 80° |
| 2026-05-01 12:41 | 61.02141 | 55.72047 | 33058 ft | 515 kts | 81° |
| 2026-05-01 12:41 | 61.03639 | 55.86492 | 33050 ft | 516 kts | 81° |
| 2026-05-01 12:42 | 61.05087 | 56.00608 | 33039 ft | 517 kts | 81° |
| 2026-05-01 12:42 | 61.06556 | 56.15085 | 33058 ft | 517 kts | 81° |
| 2026-05-01 12:43 | 61.08015 | 56.29631 | 33023 ft | 517 kts | 81° |
| 2026-05-01 12:43 | 61.09456 | 56.44174 | 33046 ft | 518 kts | 82° |
| 2026-05-01 12:44 | 61.10886 | 56.58777 | 33053 ft | 518 kts | 82° |
| 2026-05-01 12:45 | 61.13704 | 56.88063 | 33044 ft | 520 kts | 82° |
| 2026-05-01 12:45 | 61.15059 | 57.02408 | 33029 ft | 520 kts | 82° |
| 2026-05-01 12:46 | 61.16434 | 57.17114 | 33040 ft | 520 kts | 82° |
| 2026-05-01 12:46 | 61.18257 | 57.31570 | 33050 ft | 524 kts | 76° |
| 2026-05-01 12:47 | 61.20452 | 57.45966 | 33048 ft | 525 kts | 75° |
| 2026-05-01 12:47 | 61.22643 | 57.60424 | 33042 ft | 525 kts | 76° |
| 2026-05-01 12:48 | 61.24784 | 57.74928 | 33027 ft | 525 kts | 76° |
| 2026-05-01 12:48 | 61.26893 | 57.89476 | 33034 ft | 526 kts | 76° |
| 2026-05-01 12:49 | 61.28936 | 58.03695 | 33037 ft | 527 kts | 77° |
| 2026-05-01 12:49 | 61.31021 | 58.18314 | 33035 ft | 527 kts | 77° |
| 2026-05-01 12:50 | 61.33093 | 58.32958 | 33037 ft | 527 kts | 77° |
| 2026-05-01 12:50 | 61.35151 | 58.47633 | 33028 ft | 528 kts | 77° |
| 2026-05-01 12:51 | 61.37193 | 58.62331 | 33038 ft | 529 kts | 77° |
| 2026-05-01 12:52 | 61.40225 | 58.84412 | 33021 ft | 530 kts | 78° |
| 2026-05-01 12:52 | 61.43185 | 59.06247 | 32997 ft | 529 kts | 79° |
| 2026-05-01 12:53 | 61.46150 | 59.28441 | 33012 ft | 529 kts | 79° |
| 2026-05-01 12:54 | 61.48107 | 59.43270 | 33019 ft | 529 kts | 79° |
| 2026-05-01 12:54 | 61.51002 | 59.65456 | 33010 ft | 529 kts | 79° |
| 2026-05-01 12:55 | 61.53875 | 59.87790 | 33010 ft | 529 kts | 80° |
| 2026-05-01 12:56 | 61.55724 | 60.02318 | 33009 ft | 529 kts | 80° |
| 2026-05-01 12:56 | 61.57603 | 60.17241 | 32997 ft | 529 kts | 80° |
| 2026-05-01 12:57 | 61.59467 | 60.32183 | 33002 ft | 529 kts | 80° |
| 2026-05-01 12:57 | 61.62233 | 60.54616 | 32993 ft | 529 kts | 81° |
| 2026-05-01 12:58 | 61.64056 | 60.69604 | 32999 ft | 529 kts | 81° |
| 2026-05-01 12:59 | 61.66765 | 60.92140 | 32997 ft | 530 kts | 81° |
| 2026-05-01 12:59 | 61.69415 | 61.14386 | 32977 ft | 531 kts | 81° |
| 2026-05-01 13:00 | 61.72095 | 61.36914 | 32996 ft | 531 kts | 81° |
| 2026-05-01 13:01 | 61.74749 | 61.59600 | 33004 ft | 531 kts | 82° |
| 2026-05-01 13:02 | 61.77362 | 61.82339 | 32999 ft | 531 kts | 82° |
| 2026-05-01 13:07 | 61.93491 | 63.42382 | 33000 ft | 523 kts | 96° |
| 2026-05-01 13:07 | 61.93547 | 63.50125 | 33002 ft | 524 kts | 96° |
| 2026-05-01 13:08 | 61.93646 | 63.65591 | 32997 ft | 525 kts | 96° |
| 2026-05-01 13:08 | 61.93779 | 63.81132 | 32996 ft | 527 kts | 96° |
| 2026-05-01 13:09 | 61.93899 | 63.94086 | 32991 ft | 527 kts | 96° |
| 2026-05-01 13:09 | 61.94028 | 64.09265 | 32974 ft | 527 kts | 96° |
| 2026-05-01 13:10 | 61.94138 | 64.24828 | 32942 ft | 527 kts | 97° |
| 2026-05-01 13:10 | 61.94229 | 64.40363 | 32982 ft | 526 kts | 97° |
| 2026-05-01 13:11 | 61.94301 | 64.55856 | 32990 ft | 525 kts | 97° |
| 2026-05-01 13:11 | 61.94357 | 64.71250 | 32990 ft | 524 kts | 97° |
| 2026-05-01 13:12 | 61.94397 | 64.86734 | 32964 ft | 523 kts | 98° |
| 2026-05-01 13:12 | 61.93962 | 65.01666 | 32999 ft | 517 kts | 104° |
| 2026-05-01 13:13 | 61.93256 | 65.16839 | 32998 ft | 518 kts | 104° |
| 2026-05-01 13:13 | 61.92539 | 65.32076 | 32991 ft | 519 kts | 104° |
| 2026-05-01 13:14 | 61.91835 | 65.47349 | 32986 ft | 520 kts | 104° |
| 2026-05-01 13:14 | 61.91126 | 65.62628 | 32988 ft | 520 kts | 104° |
| 2026-05-01 13:15 | 61.90403 | 65.77874 | 32949 ft | 520 kts | 104° |
| 2026-05-01 13:15 | 61.89664 | 65.93017 | 32972 ft | 520 kts | 104° |
| 2026-05-01 13:16 | 61.88920 | 66.07903 | 32983 ft | 520 kts | 104° |
| 2026-05-01 13:16 | 61.88142 | 66.23135 | 32984 ft | 519 kts | 104° |
| 2026-05-01 13:17 | 61.86539 | 66.53514 | 32956 ft | 519 kts | 105° |
| 2026-05-01 13:18 | 61.85291 | 66.76297 | 32975 ft | 520 kts | 105° |
| 2026-05-01 13:18 | 61.84435 | 66.91523 | 32964 ft | 521 kts | 105° |
| 2026-05-01 13:19 | 61.83589 | 67.06308 | 32976 ft | 522 kts | 105° |
| 2026-05-01 13:20 | 61.82254 | 67.29096 | 32957 ft | 518 kts | 105° |
| 2026-05-01 13:20 | 61.81347 | 67.44192 | 32957 ft | 516 kts | 105° |
| 2026-05-01 13:21 | 61.79961 | 67.66712 | 32970 ft | 514 kts | 106° |
| 2026-05-01 13:21 | 61.79018 | 67.81694 | 32957 ft | 514 kts | 106° |
| 2026-05-01 13:22 | 61.78069 | 67.96559 | 32961 ft | 514 kts | 106° |
| 2026-05-01 13:22 | 61.77569 | 68.11461 | 32952 ft | 525 kts | 96° |
| 2026-05-01 13:23 | 61.78316 | 68.26860 | 32971 ft | 536 kts | 86° |
| 2026-05-01 13:23 | 61.79730 | 68.42375 | 32957 ft | 538 kts | 85° |
| 2026-05-01 13:24 | 61.81154 | 68.57902 | 32966 ft | 539 kts | 85° |
| 2026-05-01 13:25 | 61.83178 | 68.81308 | 32951 ft | 538 kts | 86° |
| 2026-05-01 13:25 | 61.84478 | 68.96897 | 32963 ft | 539 kts | 86° |
| 2026-05-01 13:26 | 61.85737 | 69.12177 | 32961 ft | 539 kts | 86° |
| 2026-05-01 13:26 | 61.87013 | 69.27852 | 32920 ft | 540 kts | 86° |
| 2026-05-01 13:27 | 61.88272 | 69.43524 | 32967 ft | 539 kts | 87° |
| 2026-05-01 13:27 | 61.90116 | 69.66944 | 32966 ft | 540 kts | 87° |
| 2026-05-01 13:28 | 61.91933 | 69.90559 | 32974 ft | 542 kts | 87° |
| 2026-05-01 13:29 | 61.94273 | 70.21802 | 32963 ft | 543 kts | 87° |
| 2026-05-01 13:31 | 61.97696 | 70.69428 | 32967 ft | 544 kts | 88° |
| 2026-05-01 13:32 | 62.00402 | 71.08866 | 32965 ft | 545 kts | 87° |
| 2026-05-01 13:33 | 62.03016 | 71.48773 | 32967 ft | 547 kts | 88° |
| 2026-05-01 13:34 | 62.05053 | 71.80894 | 32957 ft | 547 kts | 88° |
| 2026-05-01 13:35 | 62.06514 | 72.04657 | 32973 ft | 548 kts | 88° |
| 2026-05-01 13:36 | 62.07952 | 72.28759 | 32977 ft | 549 kts | 88° |
| 2026-05-01 13:36 | 62.09355 | 72.53010 | 32970 ft | 549 kts | 88° |
| 2026-05-01 13:37 | 62.10269 | 72.69222 | 32984 ft | 550 kts | 88° |
| 2026-05-01 13:37 | 62.11165 | 72.85470 | 32971 ft | 551 kts | 88° |
| 2026-05-01 13:38 | 62.12454 | 73.09489 | 32978 ft | 551 kts | 88° |
| 2026-05-01 13:39 | 62.13302 | 73.25750 | 32978 ft | 551 kts | 88° |
| 2026-05-01 13:39 | 62.14129 | 73.41954 | 32988 ft | 552 kts | 88° |
| 2026-05-01 13:40 | 62.14944 | 73.58284 | 32974 ft | 551 kts | 88° |
| 2026-05-01 13:40 | 62.15720 | 73.74597 | 32984 ft | 551 kts | 88° |
| 2026-05-01 13:41 | 62.16451 | 73.90916 | 32973 ft | 551 kts | 88° |
| 2026-05-01 13:41 | 62.17147 | 74.06806 | 32987 ft | 551 kts | 88° |
| 2026-05-01 13:42 | 62.17850 | 74.23145 | 32988 ft | 551 kts | 89° |
| 2026-05-01 13:42 | 62.18536 | 74.39504 | 32985 ft | 552 kts | 89° |
| 2026-05-01 13:43 | 62.19141 | 74.55851 | 32989 ft | 550 kts | 92° |
| 2026-05-01 13:43 | 62.19111 | 74.72066 | 32996 ft | 547 kts | 96° |
| 2026-05-01 13:44 | 62.18975 | 74.88376 | 32990 ft | 548 kts | 95° |
| 2026-05-01 13:44 | 62.18873 | 75.04315 | 32988 ft | 548 kts | 95° |
| 2026-05-01 13:45 | 62.18774 | 75.20610 | 32990 ft | 548 kts | 95° |
| 2026-05-01 13:45 | 62.18651 | 75.36924 | 32978 ft | 548 kts | 95° |
| 2026-05-01 13:46 | 62.18523 | 75.53247 | 32985 ft | 548 kts | 95° |
| 2026-05-01 13:46 | 62.18384 | 75.69591 | 32994 ft | 549 kts | 95° |
| 2026-05-01 13:47 | 62.18223 | 75.85932 | 32996 ft | 550 kts | 96° |
| 2026-05-01 13:47 | 62.18047 | 76.01825 | 32993 ft | 550 kts | 96° |
| 2026-05-01 13:48 | 62.17846 | 76.18213 | 32985 ft | 551 kts | 96° |
| 2026-05-01 13:48 | 62.17625 | 76.34633 | 33005 ft | 551 kts | 96° |
| 2026-05-01 13:49 | 62.17385 | 76.51042 | 32996 ft | 552 kts | 96° |
| 2026-05-01 13:49 | 62.17127 | 76.67433 | 32996 ft | 550 kts | 96° |
| 2026-05-01 13:50 | 62.16849 | 76.83797 | 33069 ft | 552 kts | 96° |
| 2026-05-01 13:50 | 62.16702 | 76.91987 | 33368 ft | 552 kts | 96° |
| 2026-05-01 13:50 | 62.16552 | 77.00088 | 33743 ft | 550 kts | 96° |
| 2026-05-01 13:50 | 62.16404 | 77.07913 | 34110 ft | 548 kts | 96° |
| 2026-05-01 13:51 | 62.16245 | 77.16061 | 34457 ft | 546 kts | 96° |
| 2026-05-01 13:51 | 62.16084 | 77.24148 | 34805 ft | 544 kts | 96° |
| 2026-05-01 13:51 | 62.15917 | 77.32219 | 34972 ft | 545 kts | 96° |
| 2026-05-01 13:52 | 62.15347 | 77.48390 | 35019 ft | 543 kts | 99° |
| 2026-05-01 13:52 | 62.14596 | 77.64307 | 34990 ft | 540 kts | 99° |
| 2026-05-01 13:53 | 62.13906 | 77.80283 | 35023 ft | 539 kts | 98° |
| 2026-05-01 13:53 | 62.12870 | 78.03840 | 35023 ft | 540 kts | 99° |
| 2026-05-01 13:54 | 62.12140 | 78.19844 | 35022 ft | 542 kts | 99° |
| 2026-05-01 13:54 | 62.11386 | 78.35970 | 35027 ft | 543 kts | 99° |
| 2026-05-01 13:55 | 62.10620 | 78.51941 | 35024 ft | 545 kts | 99° |
| 2026-05-01 13:55 | 62.09830 | 78.68039 | 35037 ft | 545 kts | 99° |
| 2026-05-01 13:56 | 62.09020 | 78.84145 | 35036 ft | 545 kts | 99° |
| 2026-05-01 13:56 | 62.08195 | 79.00158 | 35011 ft | 545 kts | 99° |
| 2026-05-01 13:57 | 62.07511 | 79.13179 | 35031 ft | 543 kts | 99° |
| 2026-05-01 13:57 | 62.06506 | 79.31874 | 35038 ft | 543 kts | 99° |
| 2026-05-01 13:58 | 62.05627 | 79.47858 | 35042 ft | 542 kts | 99° |
| 2026-05-01 13:58 | 62.04730 | 79.63803 | 35055 ft | 543 kts | 99° |
| 2026-05-01 13:59 | 62.03813 | 79.79774 | 35051 ft | 543 kts | 99° |
| 2026-05-01 13:59 | 62.02877 | 79.95747 | 35049 ft | 544 kts | 99° |
| 2026-05-01 14:00 | 62.01949 | 80.11273 | 35059 ft | 545 kts | 99° |
| 2026-05-01 14:00 | 62.00972 | 80.27316 | 35074 ft | 547 kts | 99° |
| 2026-05-01 14:01 | 61.99973 | 80.43379 | 35070 ft | 548 kts | 99° |
| 2026-05-01 14:01 | 61.98955 | 80.59459 | 35071 ft | 548 kts | 100° |
| 2026-05-01 14:02 | 61.97917 | 80.75533 | 35066 ft | 549 kts | 99° |
| 2026-05-01 14:02 | 61.96861 | 80.91598 | 35079 ft | 549 kts | 99° |
| 2026-05-01 14:03 | 61.95804 | 81.07389 | 35075 ft | 549 kts | 100° |
| 2026-05-01 14:03 | 61.94710 | 81.23435 | 35073 ft | 548 kts | 100° |
| 2026-05-01 14:04 | 61.93592 | 81.39555 | 35084 ft | 548 kts | 100° |
| 2026-05-01 14:04 | 61.92653 | 81.52864 | 35081 ft | 548 kts | 100° |
| 2026-05-01 14:05 | 61.91313 | 81.71562 | 35083 ft | 548 kts | 100° |
| 2026-05-01 14:05 | 61.90147 | 81.87537 | 35082 ft | 548 kts | 100° |
| 2026-05-01 14:06 | 61.88988 | 82.03143 | 35085 ft | 548 kts | 100° |
| 2026-05-01 14:06 | 61.87982 | 82.16505 | 35084 ft | 548 kts | 101° |
| 2026-05-01 14:07 | 61.86763 | 82.32452 | 35085 ft | 548 kts | 101° |
| 2026-05-01 14:08 | 61.84900 | 82.56356 | 35088 ft | 548 kts | 101° |
| 2026-05-01 14:08 | 61.83638 | 82.72274 | 35085 ft | 548 kts | 101° |
| 2026-05-01 14:09 | 61.82353 | 82.88161 | 35101 ft | 548 kts | 101° |
| 2026-05-01 14:09 | 61.81058 | 83.03767 | 35091 ft | 549 kts | 101° |
| 2026-05-01 14:10 | 61.79723 | 83.19654 | 35098 ft | 549 kts | 101° |
| 2026-05-01 14:10 | 61.78373 | 83.35545 | 35098 ft | 549 kts | 101° |
| 2026-05-01 14:11 | 61.77033 | 83.51436 | 35072 ft | 549 kts | 99° |
| 2026-05-01 14:11 | 61.76516 | 83.75519 | 35108 ft | 548 kts | 89° |
| 2026-05-01 14:12 | 61.76514 | 83.91612 | 35097 ft | 549 kts | 89° |
| 2026-05-01 14:12 | 61.76456 | 84.07366 | 35118 ft | 549 kts | 90° |
| 2026-05-01 14:13 | 61.76344 | 84.23504 | 35116 ft | 549 kts | 90° |
| 2026-05-01 14:13 | 61.76205 | 84.39537 | 35106 ft | 550 kts | 90° |
| 2026-05-01 14:14 | 61.76050 | 84.55674 | 35104 ft | 549 kts | 90° |
| 2026-05-01 14:14 | 61.75880 | 84.71779 | 35115 ft | 549 kts | 90° |
| 2026-05-01 14:15 | 61.75691 | 84.87905 | 35128 ft | 549 kts | 90° |
| 2026-05-01 14:15 | 61.75488 | 85.03648 | 35112 ft | 549 kts | 90° |
| 2026-05-01 14:16 | 61.75261 | 85.19761 | 35120 ft | 549 kts | 90° |
| 2026-05-01 14:16 | 61.75016 | 85.35836 | 35124 ft | 549 kts | 90° |
| 2026-05-01 14:17 | 61.74752 | 85.51933 | 35122 ft | 548 kts | 90° |
| 2026-05-01 14:17 | 61.74470 | 85.67912 | 35120 ft | 548 kts | 91° |
| 2026-05-01 14:18 | 61.74168 | 85.84002 | 35130 ft | 549 kts | 90° |
| 2026-05-01 14:18 | 61.73903 | 85.97375 | 35121 ft | 549 kts | 90° |
| 2026-05-01 14:19 | 61.73516 | 86.15815 | 35127 ft | 549 kts | 91° |
| 2026-05-01 14:19 | 61.73158 | 86.31927 | 35129 ft | 550 kts | 91° |
| 2026-05-01 14:20 | 61.72586 | 86.56007 | 35135 ft | 550 kts | 90° |
| 2026-05-01 14:21 | 61.72177 | 86.72235 | 35127 ft | 550 kts | 91° |
| 2026-05-01 14:21 | 61.71755 | 86.88247 | 35137 ft | 550 kts | 91° |
| 2026-05-01 14:22 | 61.71094 | 87.11997 | 35134 ft | 550 kts | 91° |
| 2026-05-01 14:22 | 61.70622 | 87.28104 | 35143 ft | 550 kts | 91° |
| 2026-05-01 14:23 | 61.70133 | 87.44213 | 35134 ft | 551 kts | 91° |
| 2026-05-01 14:23 | 61.69626 | 87.60315 | 35138 ft | 550 kts | 91° |
| 2026-05-01 14:24 | 61.69100 | 87.76410 | 35138 ft | 550 kts | 91° |
| 2026-05-01 14:24 | 61.68559 | 87.92496 | 35159 ft | 550 kts | 91° |
| 2026-05-01 14:25 | 61.68013 | 88.08217 | 35146 ft | 551 kts | 91° |
| 2026-05-01 14:25 | 61.67436 | 88.24290 | 35137 ft | 551 kts | 91° |
| 2026-05-01 14:26 | 61.66532 | 88.48452 | 35151 ft | 551 kts | 91° |
| 2026-05-01 14:27 | 61.65910 | 88.64445 | 35157 ft | 552 kts | 91° |
| 2026-05-01 14:27 | 61.65264 | 88.80552 | 35150 ft | 552 kts | 91° |
| 2026-05-01 14:28 | 61.64280 | 89.04318 | 35136 ft | 552 kts | 92° |
| 2026-05-01 14:28 | 61.63597 | 89.20378 | 35148 ft | 552 kts | 92° |
| 2026-05-01 14:29 | 61.62901 | 89.36457 | 35090 ft | 552 kts | 92° |
| 2026-05-01 14:30 | 61.61457 | 89.68499 | 35148 ft | 550 kts | 92° |
| 2026-05-01 14:31 | 61.60333 | 89.92380 | 35148 ft | 549 kts | 92° |
| 2026-05-01 14:31 | 61.59187 | 90.07901 | 35146 ft | 553 kts | 102° |
| 2026-05-01 14:32 | 61.57138 | 90.23490 | 35146 ft | 554 kts | 104° |
| 2026-05-01 14:32 | 61.55047 | 90.39054 | 35141 ft | 554 kts | 103° |
| 2026-05-01 14:33 | 61.53002 | 90.54636 | 35156 ft | 554 kts | 103° |
| 2026-05-01 14:33 | 61.50959 | 90.70214 | 35149 ft | 554 kts | 103° |
| 2026-05-01 14:34 | 61.48907 | 90.85676 | 35159 ft | 555 kts | 103° |
| 2026-05-01 14:34 | 61.46876 | 91.00871 | 35155 ft | 555 kts | 103° |
| 2026-05-01 14:35 | 61.44803 | 91.16395 | 35159 ft | 555 kts | 103° |
| 2026-05-01 14:35 | 61.42710 | 91.31951 | 35154 ft | 555 kts | 103° |
| 2026-05-01 14:36 | 61.40600 | 91.47458 | 35165 ft | 555 kts | 103° |
| 2026-05-01 14:36 | 61.38473 | 91.62926 | 35166 ft | 555 kts | 104° |
| 2026-05-01 14:37 | 61.36325 | 91.78395 | 35146 ft | 555 kts | 104° |
| 2026-05-01 14:37 | 61.34160 | 91.93840 | 35150 ft | 555 kts | 104° |
| 2026-05-01 14:38 | 61.32045 | 92.08793 | 35160 ft | 555 kts | 104° |
| 2026-05-01 14:38 | 61.29853 | 92.24144 | 35158 ft | 554 kts | 104° |
| 2026-05-01 14:39 | 61.27642 | 92.39483 | 35148 ft | 553 kts | 104° |
| 2026-05-01 14:39 | 61.25416 | 92.54791 | 35153 ft | 553 kts | 104° |
| 2026-05-01 14:40 | 61.23173 | 92.70070 | 35163 ft | 553 kts | 104° |
| 2026-05-01 14:40 | 61.20917 | 92.85306 | 35171 ft | 553 kts | 104° |
| 2026-05-01 14:41 | 61.18664 | 93.00381 | 35168 ft | 554 kts | 104° |
| 2026-05-01 14:41 | 61.16395 | 93.15433 | 35171 ft | 553 kts | 104° |
| 2026-05-01 14:42 | 61.14081 | 93.30644 | 35158 ft | 554 kts | 104° |
| 2026-05-01 14:42 | 61.11753 | 93.45818 | 35171 ft | 554 kts | 105° |
| 2026-05-01 14:43 | 61.09403 | 93.61001 | 35169 ft | 554 kts | 104° |
| 2026-05-01 14:43 | 61.07036 | 93.76157 | 35168 ft | 554 kts | 105° |
| 2026-05-01 14:44 | 61.04671 | 93.91178 | 35168 ft | 554 kts | 105° |
| 2026-05-01 14:44 | 61.01128 | 94.13436 | 35160 ft | 554 kts | 105° |
| 2026-05-01 14:45 | 60.97493 | 94.35987 | 35160 ft | 554 kts | 105° |
| 2026-05-01 14:46 | 60.95044 | 94.51018 | 35156 ft | 553 kts | 105° |
| 2026-05-01 14:46 | 60.91349 | 94.73467 | 35178 ft | 552 kts | 105° |
| 2026-05-01 14:47 | 60.88881 | 94.88308 | 35166 ft | 552 kts | 105° |
| 2026-05-01 14:48 | 60.85185 | 95.10315 | 35152 ft | 552 kts | 105° |
| 2026-05-01 14:48 | 60.81392 | 95.32627 | 35158 ft | 552 kts | 105° |
| 2026-05-01 14:49 | 60.76282 | 95.62268 | 35151 ft | 553 kts | 105° |
| 2026-05-01 14:50 | 60.71105 | 95.91841 | 35151 ft | 553 kts | 106° |
| 2026-05-01 14:51 | 60.67217 | 96.13639 | 35142 ft | 553 kts | 106° |
| 2026-05-01 14:52 | 60.63259 | 96.35716 | 35140 ft | 553 kts | 106° |
| 2026-05-01 14:53 | 60.59295 | 96.57652 | 35142 ft | 553 kts | 107° |
| 2026-05-01 14:53 | 60.56619 | 96.72303 | 35141 ft | 552 kts | 107° |
| 2026-05-01 14:54 | 60.53934 | 96.86892 | 35141 ft | 552 kts | 106° |
| 2026-05-01 14:54 | 60.51291 | 97.01146 | 35143 ft | 552 kts | 107° |
| 2026-05-01 14:55 | 60.48568 | 97.15720 | 35132 ft | 552 kts | 107° |
| 2026-05-01 14:55 | 60.45830 | 97.30269 | 35131 ft | 552 kts | 107° |
| 2026-05-01 14:56 | 60.43080 | 97.44767 | 35157 ft | 552 kts | 107° |
| 2026-05-01 14:56 | 60.40308 | 97.59273 | 35127 ft | 552 kts | 107° |
| 2026-05-01 14:57 | 60.37523 | 97.73745 | 35121 ft | 552 kts | 107° |
| 2026-05-01 14:57 | 60.33323 | 97.95367 | 35118 ft | 551 kts | 107° |
| 2026-05-01 14:58 | 60.30570 | 98.09415 | 35140 ft | 551 kts | 107° |
| 2026-05-01 14:58 | 60.27754 | 98.23683 | 35110 ft | 551 kts | 107° |
| 2026-05-01 14:59 | 60.24904 | 98.38016 | 35108 ft | 551 kts | 107° |
| 2026-05-01 14:59 | 60.22040 | 98.52324 | 35111 ft | 551 kts | 108° |
| 2026-05-01 15:00 | 60.17715 | 98.73733 | 35136 ft | 551 kts | 108° |
| 2026-05-01 15:01 | 60.15304 | 98.85567 | 35086 ft | 550 kts | 108° |
| 2026-05-01 15:01 | 60.12393 | 98.99765 | 35089 ft | 549 kts | 108° |
| 2026-05-01 15:02 | 60.09540 | 99.13590 | 35083 ft | 549 kts | 108° |
| 2026-05-01 15:02 | 60.06130 | 99.29988 | 35084 ft | 549 kts | 108° |
| 2026-05-01 15:03 | 60.03662 | 99.41778 | 35093 ft | 549 kts | 108° |
| 2026-05-01 15:03 | 60.00720 | 99.55741 | 35085 ft | 548 kts | 108° |
| 2026-05-01 15:04 | 59.97761 | 99.69690 | 35071 ft | 548 kts | 108° |
| 2026-05-01 15:04 | 59.94775 | 99.83670 | 35062 ft | 547 kts | 108° |
| 2026-05-01 15:05 | 59.91777 | 99.97618 | 35099 ft | 547 kts | 108° |
| 2026-05-01 15:05 | 59.88834 | 100.11213 | 35057 ft | 546 kts | 108° |
| 2026-05-01 15:06 | 59.85812 | 100.25084 | 35052 ft | 545 kts | 108° |
| 2026-05-01 15:06 | 59.82786 | 100.38882 | 35047 ft | 545 kts | 108° |
| 2026-05-01 15:07 | 59.79740 | 100.52683 | 35053 ft | 544 kts | 109° |
| 2026-05-01 15:07 | 59.76691 | 100.66409 | 35054 ft | 544 kts | 109° |
| 2026-05-01 15:08 | 59.73647 | 100.80020 | 35044 ft | 543 kts | 109° |
| 2026-05-01 15:08 | 59.70579 | 100.93663 | 35031 ft | 541 kts | 108° |
| 2026-05-01 15:09 | 59.67575 | 101.06927 | 35042 ft | 540 kts | 109° |
| 2026-05-01 15:09 | 59.64471 | 101.20439 | 35080 ft | 540 kts | 109° |
| 2026-05-01 15:10 | 59.61339 | 101.33958 | 35050 ft | 541 kts | 109° |
| 2026-05-01 15:10 | 59.56649 | 101.54077 | 35050 ft | 540 kts | 109° |
| 2026-05-01 15:11 | 59.51895 | 101.74305 | 35045 ft | 540 kts | 110° |
| 2026-05-01 15:12 | 59.48721 | 101.87704 | 35047 ft | 540 kts | 110° |
| 2026-05-01 15:12 | 59.44043 | 102.07295 | 35045 ft | 538 kts | 110° |
| 2026-05-01 15:14 | 59.36048 | 102.40382 | 35072 ft | 536 kts | 110° |
| 2026-05-01 15:14 | 59.31207 | 102.60174 | 35078 ft | 537 kts | 111° |
| 2026-05-01 15:15 | 59.24698 | 102.86508 | 35045 ft | 538 kts | 110° |
| 2026-05-01 15:16 | 59.18226 | 103.12384 | 35072 ft | 537 kts | 111° |
| 2026-05-01 15:18 | 59.09981 | 103.44917 | 35077 ft | 535 kts | 111° |
| 2026-05-01 15:19 | 59.03339 | 103.70794 | 35091 ft | 534 kts | 111° |
| 2026-05-01 15:19 | 58.98670 | 103.90284 | 35098 ft | 526 kts | 103° |
| 2026-05-01 15:20 | 58.95670 | 104.10274 | 35101 ft | 523 kts | 100° |
| 2026-05-01 15:21 | 58.93646 | 104.23832 | 35108 ft | 524 kts | 101° |
| 2026-05-01 15:21 | 58.91575 | 104.37339 | 35118 ft | 524 kts | 101° |
| 2026-05-01 15:22 | 58.88421 | 104.57571 | 35119 ft | 524 kts | 101° |
| 2026-05-01 15:22 | 58.86303 | 104.71038 | 35157 ft | 523 kts | 101° |
| 2026-05-01 15:23 | 58.84176 | 104.84468 | 35131 ft | 522 kts | 102° |
| 2026-05-01 15:23 | 58.82059 | 104.97740 | 35130 ft | 520 kts | 102° |
| 2026-05-01 15:24 | 58.79975 | 105.10701 | 35128 ft | 518 kts | 102° |
| 2026-05-01 15:24 | 58.77831 | 105.23938 | 35134 ft | 516 kts | 102° |
| 2026-05-01 15:25 | 58.75678 | 105.37138 | 35151 ft | 516 kts | 103° |
| 2026-05-01 15:25 | 58.73515 | 105.50288 | 35136 ft | 514 kts | 103° |
| 2026-05-01 15:26 | 58.71347 | 105.63376 | 35138 ft | 512 kts | 103° |
| 2026-05-01 15:26 | 58.69175 | 105.76393 | 35143 ft | 512 kts | 103° |
| 2026-05-01 15:27 | 58.66989 | 105.89407 | 35169 ft | 511 kts | 103° |
| 2026-05-01 15:28 | 58.63742 | 106.08554 | 35140 ft | 510 kts | 104° |
| 2026-05-01 15:28 | 58.61533 | 106.21467 | 35142 ft | 509 kts | 104° |
| 2026-05-01 15:29 | 58.58222 | 106.40669 | 35139 ft | 508 kts | 104° |
| 2026-05-01 15:30 | 58.53765 | 106.66302 | 35158 ft | 507 kts | 105° |
| 2026-05-01 15:31 | 58.47069 | 107.04259 | 35155 ft | 505 kts | 105° |
| 2026-05-01 15:32 | 58.42520 | 107.29599 | 35153 ft | 504 kts | 105° |
| 2026-05-01 15:34 | 58.35615 | 107.67430 | 35189 ft | 505 kts | 105° |